TCX38CW EGKK-LGSK
Flight info
| Callsign | TCX38CW |
|---|---|
| Flight time | 2h 56m |
| Altitude | 35000 |
| Route | MIMFO Y312 DVR UL9 KONAN DCT KOK DCT RITAX DCT EDISA DCT KUNOD DCT GEDSO DCT GIMIX DCT GORPA DCT DEVUL DCT LIKVI DCT REMSO DCT MEDUX UM867 KOGAT DCT ERANA DCT TSL UL617 IBIDI |
| Aircraft | A321/M-SDE2E3FGHIJ1J3J4J7M3P2RWXYZ/LB1D1 |
Departure
| Time | 2026-05-04 09:46 |
|---|---|
| Airport | London Gatwick Airport (EGKK) |
Arrival
| Time | 2026-05-04 12:42 |
|---|---|
| Airport | Skiathos Island National Airport (LGSK) |
| Time | Latitude | Longitude | Altitude | Speed | Heading |
|---|---|---|---|---|---|
| 2026-05-04 08:41 | 51.15835 | -0.16965 | 210 ft | 0 kts | 109° |
| 2026-05-04 09:20 | 51.15836 | -0.16970 | 213 ft | 3 kts | 109° |
| 2026-05-04 09:20 | 51.15845 | -0.17010 | 213 ft | 4 kts | 109° |
| 2026-05-04 09:20 | 51.15852 | -0.17044 | 212 ft | 3 kts | 109° |
| 2026-05-04 09:20 | 51.15863 | -0.17071 | 210 ft | 4 kts | 175° |
| 2026-05-04 09:21 | 51.15885 | -0.17063 | 210 ft | 4 kts | 202° |
| 2026-05-04 09:21 | 51.15895 | -0.17056 | 216 ft | 0 kts | 202° |
| 2026-05-04 09:26 | 51.15891 | -0.17059 | 215 ft | 4 kts | 202° |
| 2026-05-04 09:26 | 51.15838 | -0.17090 | 213 ft | 13 kts | 213° |
| 2026-05-04 09:27 | 51.15825 | -0.17110 | 210 ft | 4 kts | 231° |
| 2026-05-04 09:27 | 51.15800 | -0.17222 | 209 ft | 13 kts | 257° |
| 2026-05-04 09:27 | 51.15785 | -0.17335 | 205 ft | 9 kts | 257° |
| 2026-05-04 09:27 | 51.15771 | -0.17434 | 208 ft | 10 kts | 258° |
| 2026-05-04 09:28 | 51.15756 | -0.17542 | 207 ft | 11 kts | 258° |
| 2026-05-04 09:28 | 51.15740 | -0.17660 | 206 ft | 11 kts | 257° |
| 2026-05-04 09:28 | 51.15730 | -0.17733 | 208 ft | 4 kts | 257° |
| 2026-05-04 09:28 | 51.15728 | -0.17748 | 205 ft | 0 kts | 257° |
| 2026-05-04 09:31 | 51.15725 | -0.17773 | 204 ft | 7 kts | 257° |
| 2026-05-04 09:32 | 51.15708 | -0.17893 | 204 ft | 12 kts | 257° |
| 2026-05-04 09:32 | 51.15691 | -0.18012 | 208 ft | 10 kts | 257° |
| 2026-05-04 09:34 | 51.15324 | -0.18254 | 204 ft | 4 kts | 168° |
| 2026-05-04 09:34 | 51.15297 | -0.18245 | 214 ft | 5 kts | 168° |
| 2026-05-04 09:34 | 51.15231 | -0.18224 | 206 ft | 13 kts | 173° |
| 2026-05-04 09:34 | 51.15184 | -0.18352 | 210 ft | 13 kts | 257° |
| 2026-05-04 09:35 | 51.15173 | -0.18429 | 209 ft | 5 kts | 257° |
| 2026-05-04 09:35 | 51.15166 | -0.18478 | 210 ft | 4 kts | 257° |
| 2026-05-04 09:35 | 51.15165 | -0.18483 | 206 ft | 0 kts | 257° |
| 2026-05-04 09:37 | 51.15123 | -0.18779 | 208 ft | 9 kts | 257° |
| 2026-05-04 09:37 | 51.15109 | -0.18883 | 206 ft | 12 kts | 257° |
| 2026-05-04 09:38 | 51.15087 | -0.19044 | 213 ft | 17 kts | 258° |
| 2026-05-04 09:38 | 51.15063 | -0.19215 | 204 ft | 15 kts | 257° |
| 2026-05-04 09:38 | 51.15042 | -0.19373 | 213 ft | 16 kts | 258° |
| 2026-05-04 09:38 | 51.15014 | -0.19577 | 213 ft | 17 kts | 257° |
| 2026-05-04 09:39 | 51.14989 | -0.19755 | 204 ft | 16 kts | 257° |
| 2026-05-04 09:39 | 51.14966 | -0.19920 | 206 ft | 15 kts | 257° |
| 2026-05-04 09:39 | 51.14945 | -0.20076 | 208 ft | 14 kts | 257° |
| 2026-05-04 09:39 | 51.14925 | -0.20217 | 206 ft | 12 kts | 257° |
| 2026-05-04 09:40 | 51.14908 | -0.20344 | 207 ft | 11 kts | 258° |
| 2026-05-04 09:40 | 51.14893 | -0.20452 | 208 ft | 5 kts | 257° |
| 2026-05-04 09:40 | 51.14887 | -0.20496 | 203 ft | 3 kts | 257° |
| 2026-05-04 09:40 | 51.14880 | -0.20544 | 205 ft | 8 kts | 257° |
| 2026-05-04 09:41 | 51.14862 | -0.20672 | 203 ft | 15 kts | 257° |
| 2026-05-04 09:42 | 51.14628 | -0.21331 | 208 ft | 9 kts | 167° |
| 2026-05-04 09:43 | 51.14553 | -0.21282 | 212 ft | 16 kts | 144° |
| 2026-05-04 09:43 | 51.14526 | -0.21129 | 214 ft | 0 kts | 79° |
| 2026-05-04 09:43 | 51.14528 | -0.21107 | 211 ft | 11 kts | 78° |
| 2026-05-04 09:44 | 51.14586 | -0.20688 | 210 ft | 74 kts | 77° |
| 2026-05-04 09:44 | 51.14741 | -0.19569 | 210 ft | 131 kts | 77° |
| 2026-05-04 09:44 | 51.14972 | -0.17919 | 283 ft | 167 kts | 77° |
| 2026-05-04 09:46 | 51.16895 | -0.02966 | 2898 ft | 254 kts | 91° |
| 2026-05-04 09:46 | 51.16845 | -0.00129 | 3640 ft | 259 kts | 91° |
| 2026-05-04 09:46 | 51.16808 | 0.01776 | 4106 ft | 262 kts | 91° |
| 2026-05-04 09:47 | 51.16751 | 0.04690 | 4866 ft | 265 kts | 92° |
| 2026-05-04 09:47 | 51.16691 | 0.07650 | 5595 ft | 269 kts | 92° |
| 2026-05-04 09:49 | 51.16564 | 0.29577 | 10387 ft | 296 kts | 91° |
| 2026-05-04 09:49 | 51.16579 | 0.32879 | 11022 ft | 299 kts | 91° |
| 2026-05-04 09:49 | 51.16587 | 0.36209 | 11653 ft | 302 kts | 91° |
| 2026-05-04 09:51 | 51.16586 | 0.57329 | 14321 ft | 355 kts | 91° |
| 2026-05-04 09:51 | 51.16583 | 0.61359 | 14482 ft | 371 kts | 91° |
| 2026-05-04 09:51 | 51.16578 | 0.65505 | 14898 ft | 378 kts | 91° |
| 2026-05-04 09:51 | 51.16572 | 0.69716 | 15421 ft | 382 kts | 91° |
| 2026-05-04 09:52 | 51.16567 | 0.73971 | 15963 ft | 385 kts | 91° |
| 2026-05-04 09:52 | 51.16559 | 0.78252 | 16502 ft | 388 kts | 91° |
| 2026-05-04 09:52 | 51.16548 | 0.82571 | 17027 ft | 391 kts | 91° |
| 2026-05-04 09:52 | 51.16533 | 0.86925 | 17540 ft | 394 kts | 92° |
| 2026-05-04 09:53 | 51.16514 | 0.91309 | 18057 ft | 397 kts | 92° |
| 2026-05-04 09:53 | 51.16494 | 0.95733 | 18528 ft | 400 kts | 92° |
| 2026-05-04 09:53 | 51.16476 | 1.00186 | 18947 ft | 403 kts | 92° |
| 2026-05-04 09:53 | 51.16457 | 1.04671 | 19373 ft | 406 kts | 92° |
| 2026-05-04 09:54 | 51.16434 | 1.09185 | 19799 ft | 409 kts | 92° |
| 2026-05-04 09:54 | 51.16410 | 1.13676 | 20215 ft | 412 kts | 92° |
| 2026-05-04 09:54 | 51.16382 | 1.18320 | 20643 ft | 415 kts | 92° |
| 2026-05-04 09:54 | 51.16352 | 1.22932 | 21061 ft | 418 kts | 92° |
| 2026-05-04 09:55 | 51.16319 | 1.27574 | 21479 ft | 421 kts | 92° |
| 2026-05-04 09:55 | 51.16285 | 1.32249 | 21888 ft | 424 kts | 92° |
| 2026-05-04 09:55 | 51.16239 | 1.36953 | 22290 ft | 426 kts | 94° |
| 2026-05-04 09:55 | 51.16103 | 1.41683 | 22692 ft | 429 kts | 96° |
| 2026-05-04 09:56 | 51.15887 | 1.46438 | 23020 ft | 432 kts | 97° |
| 2026-05-04 09:56 | 51.15624 | 1.51231 | 23369 ft | 436 kts | 98° |
| 2026-05-04 09:56 | 51.15348 | 1.55992 | 23714 ft | 439 kts | 98° |
| 2026-05-04 09:56 | 51.15072 | 1.60850 | 24046 ft | 441 kts | 98° |
| 2026-05-04 09:57 | 51.14809 | 1.65730 | 24390 ft | 443 kts | 98° |
| 2026-05-04 09:57 | 51.14560 | 1.70634 | 24740 ft | 445 kts | 98° |
| 2026-05-04 09:57 | 51.14316 | 1.75554 | 25083 ft | 447 kts | 98° |
| 2026-05-04 09:57 | 51.14072 | 1.80503 | 25421 ft | 449 kts | 98° |
| 2026-05-04 09:58 | 51.13828 | 1.85457 | 25758 ft | 450 kts | 98° |
| 2026-05-04 09:58 | 51.13580 | 1.90431 | 26077 ft | 452 kts | 98° |
| 2026-05-04 09:58 | 51.13322 | 1.95431 | 26350 ft | 455 kts | 99° |
| 2026-05-04 10:00 | 51.11404 | 2.31027 | 28479 ft | 467 kts | 99° |
| 2026-05-04 10:00 | 51.11118 | 2.36184 | 28773 ft | 468 kts | 99° |
| 2026-05-04 10:02 | 51.07477 | 2.71817 | 30899 ft | 456 kts | 121° |
| 2026-05-04 10:04 | 50.97834 | 3.03403 | 33110 ft | 453 kts | 122° |
| 2026-05-04 10:04 | 50.96457 | 3.07895 | 33403 ft | 452 kts | 122° |
| 2026-05-04 10:04 | 50.95081 | 3.12375 | 33730 ft | 452 kts | 123° |
| 2026-05-04 10:04 | 50.93704 | 3.16848 | 34024 ft | 451 kts | 123° |
| 2026-05-04 10:05 | 50.92322 | 3.21317 | 34268 ft | 451 kts | 123° |
| 2026-05-04 10:05 | 50.90941 | 3.25771 | 34500 ft | 451 kts | 122° |
| 2026-05-04 10:05 | 50.89556 | 3.30233 | 34697 ft | 451 kts | 122° |
| 2026-05-04 10:05 | 50.88165 | 3.34700 | 34852 ft | 453 kts | 122° |
| 2026-05-04 10:06 | 50.86770 | 3.39167 | 34968 ft | 454 kts | 122° |
| 2026-05-04 10:06 | 50.83980 | 3.48097 | 35001 ft | 451 kts | 122° |
| 2026-05-04 10:08 | 50.74240 | 3.79073 | 34981 ft | 450 kts | 123° |
| 2026-05-04 10:08 | 50.71436 | 3.87926 | 34987 ft | 451 kts | 123° |
| 2026-05-04 10:09 | 50.68628 | 3.96775 | 34993 ft | 451 kts | 123° |
| 2026-05-04 10:09 | 50.65803 | 4.05612 | 34994 ft | 451 kts | 123° |
| 2026-05-04 10:10 | 50.62974 | 4.14437 | 35004 ft | 452 kts | 123° |
| 2026-05-04 10:10 | 50.60135 | 4.23265 | 35018 ft | 451 kts | 123° |
| 2026-05-04 10:11 | 50.57290 | 4.32068 | 35024 ft | 451 kts | 123° |
| 2026-05-04 10:11 | 50.54440 | 4.40860 | 35032 ft | 451 kts | 123° |
| 2026-05-04 10:12 | 50.51603 | 4.49591 | 35039 ft | 451 kts | 123° |
| 2026-05-04 10:12 | 50.48743 | 4.58348 | 35039 ft | 451 kts | 123° |
| 2026-05-04 10:13 | 50.45880 | 4.67098 | 35014 ft | 451 kts | 123° |
| 2026-05-04 10:13 | 50.43005 | 4.75851 | 34999 ft | 452 kts | 123° |
| 2026-05-04 10:14 | 50.40116 | 4.84623 | 35003 ft | 453 kts | 123° |
| 2026-05-04 10:16 | 50.28474 | 5.19647 | 34982 ft | 454 kts | 124° |
| 2026-05-04 10:16 | 50.25541 | 5.28388 | 34995 ft | 454 kts | 124° |
| 2026-05-04 10:17 | 50.22594 | 5.37125 | 35003 ft | 454 kts | 124° |
| 2026-05-04 10:19 | 50.10767 | 5.71976 | 34996 ft | 454 kts | 124° |
| 2026-05-04 10:19 | 50.07782 | 5.80639 | 35012 ft | 453 kts | 125° |
| 2026-05-04 10:20 | 50.04532 | 5.88996 | 35006 ft | 450 kts | 129° |
| 2026-05-04 10:20 | 50.01059 | 5.97073 | 35013 ft | 449 kts | 130° |
| 2026-05-04 10:21 | 49.97582 | 6.05137 | 35025 ft | 449 kts | 130° |
| 2026-05-04 10:21 | 49.94164 | 6.13257 | 35025 ft | 449 kts | 129° |
| 2026-05-04 10:22 | 49.89070 | 6.25444 | 35027 ft | 448 kts | 129° |
| 2026-05-04 10:23 | 49.85682 | 6.33483 | 35029 ft | 448 kts | 129° |
| 2026-05-04 10:25 | 49.71935 | 6.65752 | 34933 ft | 448 kts | 130° |
| 2026-05-04 10:25 | 49.68490 | 6.73785 | 35019 ft | 450 kts | 130° |
| 2026-05-04 10:26 | 49.65027 | 6.81833 | 35001 ft | 450 kts | 129° |
| 2026-05-04 10:26 | 49.61554 | 6.89877 | 35003 ft | 451 kts | 129° |
| 2026-05-04 10:27 | 49.58073 | 6.97922 | 35013 ft | 451 kts | 129° |
| 2026-05-04 10:27 | 49.54591 | 7.05952 | 35023 ft | 451 kts | 130° |
| 2026-05-04 10:28 | 49.51099 | 7.13971 | 35025 ft | 450 kts | 130° |
| 2026-05-04 10:28 | 49.47612 | 7.21961 | 35008 ft | 450 kts | 130° |
| 2026-05-04 10:29 | 49.44115 | 7.29935 | 35013 ft | 450 kts | 130° |
| 2026-05-04 10:29 | 49.40635 | 7.37857 | 35016 ft | 450 kts | 130° |
| 2026-05-04 10:30 | 49.37131 | 7.45808 | 35019 ft | 450 kts | 130° |
| 2026-05-04 10:30 | 49.33619 | 7.53757 | 35021 ft | 450 kts | 130° |
| 2026-05-04 10:31 | 49.30103 | 7.61686 | 35003 ft | 450 kts | 129° |
| 2026-05-04 10:32 | 49.17730 | 7.89404 | 35030 ft | 451 kts | 130° |
| 2026-05-04 10:33 | 49.14784 | 7.95972 | 35029 ft | 451 kts | 130° |
| 2026-05-04 10:33 | 49.10650 | 8.05129 | 35010 ft | 451 kts | 130° |
| 2026-05-04 10:34 | 49.07086 | 8.13011 | 35009 ft | 451 kts | 130° |
| 2026-05-04 10:34 | 49.03522 | 8.20879 | 35018 ft | 452 kts | 130° |
| 2026-05-04 10:35 | 49.00547 | 8.27424 | 35010 ft | 452 kts | 130° |
| 2026-05-04 10:35 | 48.96937 | 8.35245 | 35013 ft | 451 kts | 131° |
| 2026-05-04 10:36 | 48.93208 | 8.42901 | 35023 ft | 450 kts | 132° |
| 2026-05-04 10:36 | 48.89441 | 8.50501 | 35017 ft | 450 kts | 132° |
| 2026-05-04 10:37 | 48.85697 | 8.58107 | 35017 ft | 450 kts | 132° |
| 2026-05-04 10:37 | 48.81964 | 8.65733 | 35013 ft | 450 kts | 132° |
| 2026-05-04 10:39 | 48.68861 | 8.92287 | 35000 ft | 449 kts | 131° |
| 2026-05-04 10:40 | 48.65101 | 8.99842 | 35011 ft | 449 kts | 132° |
| 2026-05-04 10:40 | 48.61362 | 9.07333 | 35016 ft | 449 kts | 132° |
| 2026-05-04 10:41 | 48.57601 | 9.14870 | 34998 ft | 449 kts | 131° |
| 2026-05-04 10:41 | 48.53839 | 9.22388 | 35003 ft | 449 kts | 131° |
| 2026-05-04 10:42 | 48.50061 | 9.29900 | 34995 ft | 449 kts | 131° |
| 2026-05-04 10:42 | 48.46284 | 9.37395 | 35002 ft | 449 kts | 131° |
| 2026-05-04 10:43 | 48.42503 | 9.44895 | 35005 ft | 449 kts | 131° |
| 2026-05-04 10:45 | 48.27134 | 9.74517 | 35017 ft | 449 kts | 134° |
| 2026-05-04 10:45 | 48.23183 | 9.81769 | 35012 ft | 449 kts | 134° |
| 2026-05-04 10:46 | 48.19244 | 9.89020 | 34999 ft | 449 kts | 133° |
| 2026-05-04 10:46 | 48.15305 | 9.96291 | 35005 ft | 449 kts | 133° |
| 2026-05-04 10:47 | 48.11389 | 10.03508 | 35009 ft | 450 kts | 133° |
| 2026-05-04 10:47 | 48.07434 | 10.10774 | 35014 ft | 451 kts | 133° |
| 2026-05-04 10:49 | 47.91558 | 10.39705 | 35013 ft | 450 kts | 133° |
| 2026-05-04 10:50 | 47.87581 | 10.46900 | 35022 ft | 450 kts | 133° |
| 2026-05-04 10:52 | 47.71644 | 10.75579 | 35012 ft | 450 kts | 133° |
| 2026-05-04 10:52 | 47.67651 | 10.82721 | 35008 ft | 449 kts | 133° |
| 2026-05-04 10:54 | 47.51659 | 11.11094 | 34998 ft | 449 kts | 133° |
| 2026-05-04 10:56 | 47.35603 | 11.39319 | 34998 ft | 448 kts | 133° |
| 2026-05-04 10:57 | 47.31580 | 11.46345 | 35000 ft | 448 kts | 133° |
| 2026-05-04 10:57 | 47.27555 | 11.53343 | 35002 ft | 448 kts | 133° |
| 2026-05-04 10:58 | 47.23524 | 11.60336 | 35003 ft | 448 kts | 133° |
| 2026-05-04 10:58 | 47.19524 | 11.67263 | 34999 ft | 447 kts | 133° |
| 2026-05-04 10:59 | 47.15493 | 11.74224 | 35000 ft | 448 kts | 134° |
| 2026-05-04 10:59 | 47.11444 | 11.81186 | 35021 ft | 448 kts | 134° |
| 2026-05-04 11:00 | 47.07717 | 11.88539 | 35035 ft | 453 kts | 121° |
| 2026-05-04 11:02 | 46.97613 | 12.22619 | 35106 ft | 456 kts | 117° |
| 2026-05-04 11:05 | 46.78576 | 12.86213 | 35068 ft | 456 kts | 116° |
| 2026-05-04 11:06 | 46.76003 | 12.94684 | 35083 ft | 457 kts | 116° |
| 2026-05-04 11:06 | 46.73426 | 13.03152 | 35087 ft | 457 kts | 116° |
| 2026-05-04 11:10 | 46.55171 | 13.62233 | 35077 ft | 459 kts | 116° |
| 2026-05-04 11:12 | 46.42207 | 13.94039 | 35085 ft | 460 kts | 124° |
| 2026-05-04 11:12 | 46.38718 | 14.01815 | 35096 ft | 460 kts | 124° |
| 2026-05-04 11:13 | 46.35221 | 14.09592 | 35082 ft | 461 kts | 124° |
| 2026-05-04 11:13 | 46.31728 | 14.17353 | 35081 ft | 460 kts | 124° |
| 2026-05-04 11:14 | 46.28225 | 14.25105 | 35072 ft | 460 kts | 124° |
| 2026-05-04 11:16 | 46.14137 | 14.56016 | 35091 ft | 461 kts | 124° |
| 2026-05-04 11:16 | 46.10603 | 14.63719 | 35091 ft | 461 kts | 124° |
| 2026-05-04 11:17 | 46.07075 | 14.71395 | 35090 ft | 461 kts | 124° |
| 2026-05-04 11:19 | 45.92897 | 15.02040 | 35086 ft | 461 kts | 124° |
| 2026-05-04 11:19 | 45.89324 | 15.09702 | 35085 ft | 462 kts | 124° |
| 2026-05-04 11:20 | 45.85747 | 15.17349 | 35083 ft | 462 kts | 124° |
| 2026-05-04 11:20 | 45.82159 | 15.24994 | 35083 ft | 462 kts | 124° |
| 2026-05-04 11:22 | 45.66412 | 15.54046 | 35094 ft | 462 kts | 130° |
| 2026-05-04 11:23 | 45.62292 | 15.61098 | 35095 ft | 462 kts | 130° |
| 2026-05-04 11:25 | 45.47838 | 15.85720 | 35088 ft | 463 kts | 130° |
| 2026-05-04 11:25 | 45.43691 | 15.92741 | 35079 ft | 463 kts | 130° |
| 2026-05-04 11:27 | 45.25641 | 16.23086 | 35103 ft | 465 kts | 130° |
| 2026-05-04 11:28 | 45.21461 | 16.30073 | 35101 ft | 465 kts | 130° |
| 2026-05-04 11:28 | 45.17274 | 16.37056 | 35105 ft | 465 kts | 130° |
| 2026-05-04 11:29 | 45.13078 | 16.44025 | 35102 ft | 465 kts | 130° |
| 2026-05-04 11:29 | 45.08821 | 16.50916 | 35106 ft | 465 kts | 131° |
| 2026-05-04 11:33 | 44.78595 | 16.98371 | 35111 ft | 465 kts | 131° |
| 2026-05-04 11:33 | 44.74258 | 17.05128 | 35123 ft | 465 kts | 131° |
| 2026-05-04 11:34 | 44.69918 | 17.11875 | 35109 ft | 465 kts | 131° |
| 2026-05-04 11:34 | 44.65582 | 17.18605 | 35106 ft | 465 kts | 131° |
| 2026-05-04 11:35 | 44.61235 | 17.25334 | 35117 ft | 465 kts | 131° |
| 2026-05-04 11:35 | 44.56876 | 17.32059 | 35127 ft | 465 kts | 131° |
| 2026-05-04 11:36 | 44.52520 | 17.38777 | 35115 ft | 466 kts | 131° |
| 2026-05-04 11:36 | 44.48156 | 17.45477 | 35130 ft | 466 kts | 131° |
| 2026-05-04 11:37 | 44.43787 | 17.52165 | 35136 ft | 466 kts | 131° |
| 2026-05-04 11:37 | 44.39436 | 17.58814 | 35127 ft | 466 kts | 131° |
| 2026-05-04 11:38 | 44.35055 | 17.65493 | 35125 ft | 467 kts | 131° |
| 2026-05-04 11:38 | 44.30667 | 17.72176 | 35120 ft | 467 kts | 131° |
| 2026-05-04 11:39 | 44.26274 | 17.78852 | 35130 ft | 467 kts | 131° |
| 2026-05-04 11:41 | 44.10839 | 18.02165 | 35123 ft | 468 kts | 131° |
| 2026-05-04 11:41 | 44.06406 | 18.08807 | 35134 ft | 469 kts | 131° |
| 2026-05-04 11:42 | 44.01958 | 18.15444 | 35145 ft | 469 kts | 131° |
| 2026-05-04 11:42 | 43.97505 | 18.22068 | 35143 ft | 469 kts | 131° |
| 2026-05-04 11:43 | 43.93054 | 18.28694 | 35146 ft | 469 kts | 131° |
| 2026-05-04 11:43 | 43.88596 | 18.35316 | 35132 ft | 469 kts | 132° |
| 2026-05-04 11:44 | 43.84159 | 18.41880 | 35130 ft | 470 kts | 132° |
| 2026-05-04 11:44 | 43.79683 | 18.48492 | 35134 ft | 471 kts | 132° |
| 2026-05-04 11:45 | 43.75193 | 18.55101 | 35131 ft | 471 kts | 132° |
| 2026-05-04 11:45 | 43.70699 | 18.61694 | 35146 ft | 471 kts | 131° |
| 2026-05-04 11:46 | 43.66203 | 18.68292 | 35149 ft | 471 kts | 131° |
| 2026-05-04 11:46 | 43.61708 | 18.74882 | 35146 ft | 472 kts | 132° |
| 2026-05-04 11:47 | 43.57199 | 18.81464 | 35141 ft | 472 kts | 132° |
| 2026-05-04 11:47 | 43.52677 | 18.88034 | 35153 ft | 473 kts | 131° |
| 2026-05-04 11:48 | 43.48144 | 18.94605 | 35139 ft | 473 kts | 131° |
| 2026-05-04 11:48 | 43.43636 | 19.01209 | 35140 ft | 473 kts | 131° |
| 2026-05-04 11:49 | 43.39184 | 19.07885 | 35144 ft | 473 kts | 130° |
| 2026-05-04 11:49 | 43.34758 | 19.14514 | 35149 ft | 474 kts | 130° |
| 2026-05-04 11:50 | 43.30278 | 19.21167 | 35138 ft | 475 kts | 130° |
| 2026-05-04 11:50 | 43.25785 | 19.27802 | 35140 ft | 475 kts | 131° |
| 2026-05-04 11:51 | 43.21277 | 19.34439 | 35137 ft | 475 kts | 131° |
| 2026-05-04 11:51 | 43.16770 | 19.41072 | 35140 ft | 476 kts | 131° |
| 2026-05-04 11:52 | 43.12262 | 19.47697 | 35163 ft | 475 kts | 130° |
| 2026-05-04 11:52 | 43.07752 | 19.54313 | 35160 ft | 475 kts | 130° |
| 2026-05-04 11:53 | 43.03234 | 19.60919 | 35153 ft | 475 kts | 130° |
| 2026-05-04 11:53 | 42.98717 | 19.67504 | 35151 ft | 475 kts | 130° |
| 2026-05-04 11:55 | 42.80601 | 19.93769 | 35147 ft | 476 kts | 130° |
| 2026-05-04 11:56 | 42.76053 | 20.00327 | 35144 ft | 477 kts | 130° |
| 2026-05-04 11:56 | 42.71644 | 20.06961 | 35144 ft | 475 kts | 127° |
| 2026-05-04 11:57 | 42.67490 | 20.13933 | 35168 ft | 475 kts | 124° |
| 2026-05-04 11:57 | 42.63382 | 20.20969 | 35162 ft | 475 kts | 125° |
| 2026-05-04 11:58 | 42.59203 | 20.27923 | 35150 ft | 475 kts | 126° |
| 2026-05-04 11:58 | 42.54970 | 20.34820 | 35145 ft | 477 kts | 126° |
| 2026-05-04 11:59 | 42.50720 | 20.41734 | 35144 ft | 477 kts | 126° |
| 2026-05-04 11:59 | 42.46477 | 20.48654 | 35183 ft | 478 kts | 126° |
| 2026-05-04 12:00 | 42.42227 | 20.55581 | 35170 ft | 478 kts | 126° |
| 2026-05-04 12:00 | 42.37979 | 20.62486 | 35166 ft | 478 kts | 126° |
| 2026-05-04 12:01 | 42.33717 | 20.69395 | 35166 ft | 478 kts | 126° |
| 2026-05-04 12:02 | 42.18799 | 20.93456 | 35174 ft | 478 kts | 126° |
| 2026-05-04 12:03 | 42.14528 | 21.00308 | 35176 ft | 478 kts | 126° |
| 2026-05-04 12:03 | 42.10130 | 21.07005 | 35161 ft | 480 kts | 133° |
| 2026-05-04 12:04 | 42.05259 | 21.13173 | 35163 ft | 481 kts | 133° |
| 2026-05-04 12:04 | 42.00391 | 21.19336 | 35172 ft | 480 kts | 133° |
| 2026-05-04 12:05 | 41.95531 | 21.25495 | 35164 ft | 480 kts | 133° |
| 2026-05-04 12:05 | 41.90676 | 21.31649 | 35149 ft | 480 kts | 133° |
| 2026-05-04 12:06 | 41.85816 | 21.37787 | 35148 ft | 479 kts | 133° |
| 2026-05-04 12:06 | 41.80947 | 21.43899 | 35130 ft | 479 kts | 133° |
| 2026-05-04 12:07 | 41.76083 | 21.49997 | 35128 ft | 480 kts | 133° |
| 2026-05-04 12:07 | 41.71217 | 21.56107 | 35121 ft | 480 kts | 133° |
| 2026-05-04 12:08 | 41.66343 | 21.62203 | 35120 ft | 480 kts | 134° |
| 2026-05-04 12:08 | 41.61455 | 21.68282 | 35120 ft | 480 kts | 134° |
| 2026-05-04 12:09 | 41.56595 | 21.74323 | 35120 ft | 480 kts | 134° |
| 2026-05-04 12:09 | 41.51706 | 21.80404 | 35162 ft | 481 kts | 134° |
| 2026-05-04 12:10 | 41.46800 | 21.86483 | 35144 ft | 481 kts | 134° |
| 2026-05-04 12:10 | 41.41898 | 21.92543 | 35139 ft | 481 kts | 134° |
| 2026-05-04 12:11 | 41.36985 | 21.98604 | 35134 ft | 481 kts | 134° |
| 2026-05-04 12:11 | 41.32069 | 22.04655 | 35135 ft | 482 kts | 134° |
| 2026-05-04 12:12 | 41.27148 | 22.10700 | 35135 ft | 482 kts | 134° |
| 2026-05-04 12:12 | 41.22222 | 22.16737 | 35153 ft | 481 kts | 134° |
| 2026-05-04 12:14 | 41.01733 | 22.39639 | 35113 ft | 483 kts | 139° |
| 2026-05-04 12:15 | 40.96404 | 22.45041 | 35107 ft | 485 kts | 149° |
| 2026-05-04 12:15 | 40.90406 | 22.49155 | 35144 ft | 486 kts | 152° |
| 2026-05-04 12:16 | 40.84415 | 22.53164 | 35144 ft | 485 kts | 152° |
| 2026-05-04 12:16 | 40.78394 | 22.57178 | 35142 ft | 484 kts | 152° |
| 2026-05-04 12:17 | 40.72387 | 22.61189 | 35094 ft | 485 kts | 152° |
| 2026-05-04 12:17 | 40.69373 | 22.63205 | 34857 ft | 485 kts | 152° |
| 2026-05-04 12:17 | 40.66358 | 22.65220 | 34616 ft | 486 kts | 152° |
| 2026-05-04 12:18 | 40.63340 | 22.67233 | 34379 ft | 487 kts | 152° |
| 2026-05-04 12:18 | 40.60315 | 22.69243 | 34084 ft | 487 kts | 152° |
| 2026-05-04 12:18 | 40.57267 | 22.71265 | 32982 ft | 496 kts | 152° |
| 2026-05-04 12:18 | 40.55220 | 22.72621 | 32418 ft | 499 kts | 152° |
| 2026-05-04 12:19 | 40.52114 | 22.74675 | 31724 ft | 498 kts | 152° |
| 2026-05-04 12:19 | 40.49032 | 22.76714 | 31106 ft | 495 kts | 152° |
| 2026-05-04 12:19 | 40.45959 | 22.78751 | 30503 ft | 493 kts | 152° |
| 2026-05-04 12:19 | 40.42925 | 22.80757 | 30135 ft | 483 kts | 152° |
| 2026-05-04 12:20 | 40.39942 | 22.82727 | 29559 ft | 477 kts | 152° |
| 2026-05-04 12:20 | 40.37013 | 22.84659 | 28664 ft | 464 kts | 152° |
| 2026-05-04 12:20 | 40.34166 | 22.86536 | 27564 ft | 452 kts | 152° |
| 2026-05-04 12:20 | 40.31420 | 22.88344 | 27003 ft | 429 kts | 152° |
| 2026-05-04 12:21 | 40.28789 | 22.90074 | 26743 ft | 421 kts | 152° |
| 2026-05-04 12:21 | 40.26179 | 22.91792 | 26414 ft | 418 kts | 152° |
| 2026-05-04 12:21 | 40.23589 | 22.93495 | 25904 ft | 415 kts | 152° |
| 2026-05-04 12:21 | 40.21026 | 22.95181 | 25406 ft | 411 kts | 152° |
| 2026-05-04 12:22 | 40.18483 | 22.96848 | 24918 ft | 407 kts | 152° |
| 2026-05-04 12:22 | 40.15961 | 22.98497 | 24436 ft | 403 kts | 152° |
| 2026-05-04 12:22 | 40.13433 | 23.00149 | 23973 ft | 398 kts | 152° |
| 2026-05-04 12:22 | 40.11002 | 23.01736 | 23487 ft | 394 kts | 152° |
| 2026-05-04 12:23 | 40.08533 | 23.03350 | 23031 ft | 388 kts | 152° |
| 2026-05-04 12:23 | 40.06173 | 23.04892 | 22598 ft | 381 kts | 152° |
| 2026-05-04 12:23 | 40.03789 | 23.06447 | 22165 ft | 375 kts | 152° |
| 2026-05-04 12:23 | 40.01497 | 23.07942 | 21734 ft | 370 kts | 152° |
| 2026-05-04 12:24 | 39.99209 | 23.09436 | 21321 ft | 366 kts | 152° |
| 2026-05-04 12:24 | 39.96948 | 23.10912 | 20900 ft | 361 kts | 152° |
| 2026-05-04 12:24 | 39.94710 | 23.12370 | 20474 ft | 358 kts | 152° |
| 2026-05-04 12:24 | 39.92490 | 23.13812 | 20034 ft | 355 kts | 152° |
| 2026-05-04 12:25 | 39.90286 | 23.15243 | 19605 ft | 352 kts | 152° |
| 2026-05-04 12:25 | 39.88100 | 23.16663 | 19180 ft | 350 kts | 152° |
| 2026-05-04 12:25 | 39.85927 | 23.18073 | 18750 ft | 348 kts | 152° |
| 2026-05-04 12:25 | 39.83764 | 23.19476 | 18304 ft | 347 kts | 152° |
| 2026-05-04 12:26 | 39.81613 | 23.20869 | 17849 ft | 344 kts | 152° |
| 2026-05-04 12:26 | 39.79481 | 23.22248 | 17444 ft | 341 kts | 152° |
| 2026-05-04 12:26 | 39.77363 | 23.23619 | 17134 ft | 345 kts | 151° |
| 2026-05-04 12:26 | 39.75179 | 23.25034 | 17126 ft | 355 kts | 152° |
| 2026-05-04 12:27 | 39.72961 | 23.26467 | 17133 ft | 358 kts | 152° |
| 2026-05-04 12:27 | 39.70728 | 23.27907 | 17130 ft | 358 kts | 152° |
| 2026-05-04 12:27 | 39.68496 | 23.29343 | 17145 ft | 358 kts | 152° |
| 2026-05-04 12:27 | 39.66259 | 23.30783 | 17144 ft | 358 kts | 152° |
| 2026-05-04 12:28 | 39.64025 | 23.32220 | 17143 ft | 358 kts | 152° |
| 2026-05-04 12:28 | 39.61792 | 23.33651 | 17141 ft | 358 kts | 152° |
| 2026-05-04 12:28 | 39.59558 | 23.35086 | 17138 ft | 358 kts | 152° |
| 2026-05-04 12:28 | 39.57350 | 23.36507 | 16261 ft | 353 kts | 152° |
| 2026-05-04 12:29 | 39.55114 | 23.37948 | 14781 ft | 364 kts | 151° |
| 2026-05-04 12:29 | 39.52839 | 23.39415 | 13527 ft | 366 kts | 151° |
| 2026-05-04 12:29 | 39.50569 | 23.40875 | 12347 ft | 363 kts | 151° |
| 2026-05-04 12:29 | 39.48320 | 23.42315 | 11257 ft | 358 kts | 152° |
| 2026-05-04 12:30 | 39.46107 | 23.43726 | 10492 ft | 346 kts | 152° |
| 2026-05-04 12:30 | 39.44034 | 23.45046 | 10256 ft | 318 kts | 152° |
| 2026-05-04 12:30 | 39.42099 | 23.46278 | 9758 ft | 304 kts | 152° |
| 2026-05-04 12:30 | 39.40226 | 23.47475 | 9590 ft | 301 kts | 152° |
| 2026-05-04 12:31 | 39.38355 | 23.48675 | 9451 ft | 299 kts | 152° |
| 2026-05-04 12:31 | 39.36492 | 23.49868 | 9318 ft | 299 kts | 152° |
| 2026-05-04 12:31 | 39.34629 | 23.51054 | 9101 ft | 298 kts | 152° |
| 2026-05-04 12:31 | 39.32773 | 23.52238 | 8749 ft | 297 kts | 152° |
| 2026-05-04 12:32 | 39.30927 | 23.53416 | 8383 ft | 295 kts | 152° |
| 2026-05-04 12:32 | 39.27255 | 23.55758 | 7641 ft | 293 kts | 153° |
| 2026-05-04 12:32 | 39.25428 | 23.56917 | 7273 ft | 292 kts | 153° |
| 2026-05-04 12:33 | 39.23613 | 23.58067 | 6916 ft | 290 kts | 153° |
| 2026-05-04 12:33 | 39.21801 | 23.59216 | 6555 ft | 289 kts | 153° |
| 2026-05-04 12:33 | 39.19980 | 23.60294 | 6179 ft | 288 kts | 162° |
| 2026-05-04 12:33 | 39.18038 | 23.60696 | 5800 ft | 277 kts | 184° |
| 2026-05-04 12:34 | 39.16209 | 23.60296 | 5466 ft | 257 kts | 203° |
| 2026-05-04 12:34 | 39.14662 | 23.59377 | 5160 ft | 236 kts | 211° |
| 2026-05-04 12:34 | 39.13252 | 23.58457 | 4874 ft | 218 kts | 212° |
| 2026-05-04 12:34 | 39.11957 | 23.57618 | 4597 ft | 200 kts | 212° |
| 2026-05-04 12:35 | 39.10766 | 23.56846 | 4354 ft | 185 kts | 212° |
| 2026-05-04 12:35 | 39.09646 | 23.56119 | 4124 ft | 176 kts | 212° |
| 2026-05-04 12:35 | 39.08564 | 23.55413 | 3907 ft | 173 kts | 212° |
| 2026-05-04 12:35 | 39.07528 | 23.54735 | 3701 ft | 159 kts | 213° |
| 2026-05-04 12:36 | 39.06567 | 23.54106 | 3509 ft | 152 kts | 213° |
| 2026-05-04 12:36 | 39.05627 | 23.53491 | 3317 ft | 151 kts | 212° |
| 2026-05-04 12:36 | 39.04689 | 23.52878 | 3126 ft | 151 kts | 212° |
| 2026-05-04 12:36 | 39.03750 | 23.52265 | 2938 ft | 152 kts | 212° |
| 2026-05-04 12:37 | 39.02811 | 23.51638 | 2755 ft | 151 kts | 216° |
| 2026-05-04 12:37 | 39.02126 | 23.50685 | 2654 ft | 143 kts | 248° |
| 2026-05-04 12:37 | 39.01912 | 23.49479 | 2553 ft | 137 kts | 277° |
| 2026-05-04 12:37 | 39.02170 | 23.48323 | 2450 ft | 135 kts | 303° |
| 2026-05-04 12:38 | 39.02815 | 23.47468 | 2354 ft | 135 kts | 329° |
| 2026-05-04 12:38 | 39.03695 | 23.47026 | 2243 ft | 138 kts | 341° |
| 2026-05-04 12:38 | 39.04619 | 23.46734 | 2133 ft | 138 kts | 353° |
| 2026-05-04 12:38 | 39.05575 | 23.46802 | 2026 ft | 139 kts | 9° |
| 2026-05-04 12:39 | 39.06518 | 23.47077 | 1916 ft | 138 kts | 10° |
| 2026-05-04 12:39 | 39.07452 | 23.47344 | 1777 ft | 137 kts | 10° |
| 2026-05-04 12:39 | 39.08382 | 23.47607 | 1715 ft | 138 kts | 11° |
| 2026-05-04 12:39 | 39.09318 | 23.47876 | 1597 ft | 137 kts | 10° |
| 2026-05-04 12:40 | 39.10250 | 23.48127 | 1439 ft | 137 kts | 9° |
| 2026-05-04 12:40 | 39.11179 | 23.48341 | 1240 ft | 135 kts | 8° |
| 2026-05-04 12:40 | 39.12106 | 23.48532 | 1086 ft | 135 kts | 5° |
| 2026-05-04 12:40 | 39.13038 | 23.48730 | 870 ft | 136 kts | 9° |
| 2026-05-04 12:41 | 39.13978 | 23.48949 | 682 ft | 138 kts | 12° |
| 2026-05-04 12:41 | 39.14910 | 23.49198 | 504 ft | 138 kts | 12° |
| 2026-05-04 12:41 | 39.15833 | 23.49485 | 316 ft | 134 kts | 20° |
| 2026-05-04 12:41 | 39.16714 | 23.49894 | 142 ft | 136 kts | 22° |
| 2026-05-04 12:42 | 39.17576 | 23.50309 | 41 ft | 117 kts | 19° |
| 2026-05-04 12:42 | 39.17913 | 23.50460 | 42 ft | 0 kts | 15° |
| 2026-05-04 12:42 | 39.17934 | 23.50417 | 42 ft | 14 kts | 259° |
| 2026-05-04 12:42 | 39.17930 | 23.50376 | 42 ft | 7 kts | 262° |
| 2026-05-04 12:43 | 39.17881 | 23.50326 | 40 ft | 0 kts | 201° |
| 2026-05-04 12:43 | 39.17870 | 23.50321 | 38 ft | 3 kts | 201° |
| 2026-05-04 12:43 | 39.17857 | 23.50302 | 39 ft | 2 kts | 254° |
| 2026-05-04 12:43 | 39.17860 | 23.50284 | 39 ft | 1 kts | 285° |
| 2026-05-04 12:44 | 39.17860 | 23.50283 | 39 ft | 0 kts | 284° |
| 2026-05-04 12:44 | 39.17868 | 23.50250 | 39 ft | 9 kts | 287° |
| 2026-05-04 12:44 | 39.17873 | 23.50228 | 39 ft | 0 kts | 289° |
| 2026-05-04 12:44 | 39.17875 | 23.50223 | 39 ft | 0 kts | 289° |